Time;durP1;ratioP1;P1;durP2;ratioP2;P2;SDS_P1;SDS_P2;PMS_P1;PMS_P2;Temp;Humidity;BMP_temperature;BMP_pressure;BME280_temperature;BME280_humidity;BME280_pressure;Samples;Min_cycle;Max_cycle;Signal;HPM_P1;HPM_P2
2021/11/29 00:01:21;;;;;;;25.77;15.80;;;6.60;55.60;;;;;;5141712;27;20468;-91
2021/11/29 00:03:56;;;;;;;25.80;16.47;;;6.50;55.60;;;;;;5137086;27;20448;-91
2021/11/29 00:06:35;;;;;;;23.80;15.33;;;6.50;55.50;;;;;;5137646;27;20932;-91
2021/11/29 00:09:04;;;;;;;27.53;16.50;;;6.20;56.70;;;;;;5138658;27;20539;-92
2021/11/29 00:11:31;;;;;;;23.33;16.20;;;6.30;56.20;;;;;;5138457;27;20467;-91
2021/11/29 00:14:01;;;;;;;21.97;15.33;;;6.20;56.70;;;;;;5142202;27;20433;-91
2021/11/29 00:16:28;;;;;;;21.50;15.13;;;6.40;56.20;;;;;;5140632;27;20446;-92
2021/11/29 00:18:55;;;;;;;19.90;15.20;;;6.60;55.70;;;;;;5139235;27;20472;-91
2021/11/29 00:21:22;;;;;;;22.83;15.77;;;6.80;56.20;;;;;;5150882;27;20482;-91
2021/11/29 00:23:48;;;;;;;25.80;15.93;;;6.60;56.10;;;;;;5138934;27;20845;-91
2021/11/29 00:26:19;;;;;;;23.77;17.90;;;6.40;55.90;;;;;;5141205;27;20476;-91
2021/11/29 00:28:46;;;;;;;24.53;17.17;;;6.30;56.50;;;;;;5139457;27;20459;-92
2021/11/29 00:31:14;;;;;;;24.00;16.37;;;6.40;57.10;;;;;;5139811;27;20431;-91
2021/11/29 00:33:41;;;;;;;27.07;17.30;;;6.10;57.10;;;;;;5138916;27;20946;-91
2021/11/29 00:38:49;;;;;;;21.37;15.63;;;6.70;55.50;;;;;;5139571;27;20463;-92
2021/11/29 00:41:17;;;;;;;24.07;16.00;;;6.50;55.80;;;;;;5138812;27;20479;-89
2021/11/29 00:43:44;;;;;;;25.70;16.73;;;6.40;56.30;;;;;;5138249;27;20547;-90
2021/11/29 00:46:11;;;;;;;23.13;16.07;;;6.30;56.50;;;;;;5140959;27;20490;-92
2021/11/29 00:48:38;;;;;;;24.00;15.27;;;6.00;57.60;;;;;;5145138;27;20475;-90
2021/11/29 00:51:05;;;;;;;22.33;15.60;;;6.10;57.10;;;;;;5153526;27;20440;-90
2021/11/29 00:53:34;;;;;;;21.07;15.83;;;6.30;57.20;;;;;;5153211;27;20427;-90
2021/11/29 00:56:01;;;;;;;21.80;15.30;;;6.60;56.20;;;;;;5144004;27;20492;-92
2021/11/29 00:58:29;;;;;;;20.27;13.63;;;6.80;55.00;;;;;;5142918;28;20466;-91
2021/11/29 01:00:57;;;;;;;20.03;14.17;;;7.00;54.70;;;;;;5157450;27;20472;-86
2021/11/29 01:03:23;;;;;;;15.97;12.17;;;7.10;54.00;;;;;;5158566;27;20417;-88
2021/11/29 01:05:50;;;;;;;21.17;13.67;;;7.30;54.10;;;;;;5157762;27;20466;-86
2021/11/29 01:08:19;;;;;;;20.50;14.00;;;7.50;55.20;;;;;;5139855;28;20516;-92
2021/11/29 01:10:46;;;;;;;20.93;14.20;;;7.50;53.10;;;;;;5139332;28;21006;-91
2021/11/29 01:13:13;;;;;;;20.20;13.73;;;7.50;52.70;;;;;;5137581;28;20433;-91
2021/11/29 01:15:43;;;;;;;20.13;13.33;;;7.40;52.60;;;;;;5139513;28;20533;-91
2021/11/29 01:18:11;;;;;;;21.30;14.13;;;7.40;53.00;;;;;;5148701;27;20496;-91
2021/11/29 01:20:40;;;;;;;18.00;12.20;;;7.30;53.20;;;;;;5150235;27;20499;-92
2021/11/29 01:23:07;;;;;;;15.90;12.23;;;7.40;53.00;;;;;;5143227;27;20436;-90
2021/11/29 01:25:34;;;;;;;15.23;11.07;;;7.30;53.20;;;;;;5143073;27;20439;-92
2021/11/29 01:28:01;;;;;;;15.03;11.77;;;7.40;54.10;;;;;;5158687;27;20477;-87
2021/11/29 01:30:28;;;;;;;14.70;11.00;;;7.40;52.40;;;;;;5159384;27;20447;-91
2021/11/29 01:32:57;;;;;;;16.53;11.97;;;7.40;52.80;;;;;;5155502;27;20441;-86
2021/11/29 01:35:24;;;;;;;16.93;12.30;;;7.40;55.30;;;;;;5161959;27;20519;-84
2021/11/29 01:37:51;;;;;;;14.77;11.10;;;7.50;53.10;;;;;;5152651;27;20523;-91
2021/11/29 01:40:18;;;;;;;17.63;12.53;;;7.70;52.40;;;;;;5139469;27;20482;-91
2021/11/29 01:42:56;;;;;;;15.10;11.57;;;7.60;53.30;;;;;;5140006;27;20485;-91
2021/11/29 01:45:23;;;;;;;15.57;10.43;;;7.70;52.00;;;;;;5138052;27;20513;-91
2021/11/29 01:47:50;;;;;;;16.13;11.60;;;7.70;54.20;;;;;;5138225;27;20453;-91
2021/11/29 01:50:18;;;;;;;15.40;10.83;;;7.50;51.70;;;;;;5140918;27;20818;-92
2021/11/29 01:52:45;;;;;;;16.97;10.93;;;7.70;51.30;;;;;;5137823;27;20474;-91
2021/11/29 01:55:12;;;;;;;15.90;11.53;;;7.80;53.60;;;;;;5141228;27;20487;-93
2021/11/29 01:57:39;;;;;;;16.07;10.60;;;7.60;51.80;;;;;;5142867;27;20456;-91
2021/11/29 02:00:08;;;;;;;17.03;11.27;;;7.50;51.50;;;;;;5143802;27;20499;-91
2021/11/29 02:02:35;;;;;;;15.20;12.10;;;7.20;52.00;;;;;;5139064;27;20468;-92
2021/11/29 02:05:03;;;;;;;17.97;12.17;;;7.30;53.60;;;;;;5141415;27;20563;-90
2021/11/29 02:07:31;;;;;;;17.50;11.43;;;7.20;52.20;;;;;;5141833;27;20632;-92
2021/11/29 02:09:58;;;;;;;18.63;11.60;;;7.20;52.10;;;;;;5138680;27;20459;-91
2021/11/29 02:12:25;;;;;;;15.20;10.90;;;7.30;52.30;;;;;;5141547;27;20856;-92
2021/11/29 02:14:52;;;;;;;15.20;10.53;;;7.20;52.40;;;;;;5140332;27;20527;-91
2021/11/29 02:17:19;;;;;;;16.63;12.30;;;7.20;53.00;;;;;;5138395;27;20464;-91
2021/11/29 02:19:47;;;;;;;16.23;10.93;;;7.00;52.70;;;;;;5139684;27;20506;-91
2021/11/29 02:22:16;;;;;;;15.47;11.43;;;7.30;54.40;;;;;;5142585;27;20582;-90
2021/11/29 02:24:43;;;;;;;17.87;11.90;;;7.20;52.10;;;;;;5138709;27;20445;-92
2021/11/29 02:27:10;;;;;;;17.37;12.60;;;7.00;52.80;;;;;;5144306;27;20456;-91
2021/11/29 02:29:40;;;;;;;19.30;13.20;;;6.90;53.50;;;;;;5137416;27;20469;-92
2021/11/29 02:32:08;;;;;;;18.13;12.90;;;6.90;53.10;;;;;;5144693;27;20445;-91
2021/11/29 02:34:35;;;;;;;21.13;13.30;;;7.00;53.00;;;;;;5139243;27;20459;-92
2021/11/29 02:37:05;;;;;;;21.97;13.60;;;6.80;53.70;;;;;;5139216;27;20559;-92
2021/11/29 02:39:35;;;;;;;19.60;13.80;;;6.70;53.90;;;;;;5136803;27;20986;-92
2021/11/29 02:42:05;;;;;;;18.97;13.77;;;6.30;55.10;;;;;;5137166;27;20479;-91
2021/11/29 02:44:33;;;;;;;21.70;14.60;;;6.50;54.50;;;;;;5139634;27;20453;-92
2021/11/29 02:47:00;;;;;;;21.97;14.53;;;6.30;54.90;;;;;;5138512;27;20921;-91
2021/11/29 02:49:28;;;;;;;20.60;14.40;;;6.00;56.50;;;;;;5139631;27;20520;-92
2021/11/29 02:51:58;;;;;;;21.03;14.30;;;5.90;56.90;;;;;;5139420;27;20522;-92
2021/11/29 02:54:27;;;;;;;24.67;15.83;;;6.20;56.50;;;;;;5140448;27;20448;-91
2021/11/29 02:56:59;;;;;;;24.57;14.83;;;6.20;55.90;;;;;;5137758;27;20463;-91
2021/11/29 02:59:29;;;;;;;20.90;14.50;;;6.20;55.90;;;;;;5136706;27;20543;-91
2021/11/29 03:01:58;;;;;;;23.17;15.17;;;6.10;56.20;;;;;;5136484;27;20479;-91
2021/11/29 03:04:28;;;;;;;20.60;13.97;;;6.10;56.40;;;;;;5136460;27;20463;-90
2021/11/29 03:06:56;;;;;;;25.67;16.07;;;6.40;55.50;;;;;;5136398;27;20533;-91
2021/11/29 03:09:23;;;;;;;23.17;15.03;;;6.40;55.60;;;;;;5136162;27;20571;-91
2021/11/29 03:11:51;;;;;;;21.70;14.87;;;6.20;55.60;;;;;;5137171;27;20473;-91
2021/11/29 03:14:20;;;;;;;23.60;15.90;;;6.10;56.60;;;;;;5136811;27;20523;-91
2021/11/29 03:16:47;;;;;;;25.87;16.97;;;6.00;57.60;;;;;;5136666;27;20437;-91
2021/11/29 03:19:13;;;;;;;22.93;16.07;;;6.20;57.30;;;;;;5137110;27;20455;-90
2021/11/29 03:21:40;;;;;;;24.30;15.50;;;6.10;56.80;;;;;;5136170;27;20479;-91
2021/11/29 03:24:10;;;;;;;30.37;17.63;;;6.30;56.30;;;;;;5137182;27;20446;-91
2021/11/29 03:26:38;;;;;;;19.43;14.57;;;6.10;58.00;;;;;;5136259;27;20566;-91
2021/11/29 03:29:07;;;;;;;22.37;16.33;;;6.20;59.60;;;;;;5135600;27;20681;-90
2021/11/29 03:31:36;;;;;;;30.53;15.97;;;6.30;55.80;;;;;;5135539;27;20524;-91
2021/11/29 03:34:05;;;;;;;24.17;15.90;;;6.70;55.60;;;;;;5135744;27;21012;-91
2021/11/29 03:36:34;;;;;;;28.10;15.03;;;6.90;54.40;;;;;;5136401;27;20446;-90
2021/11/29 03:39:03;;;;;;;24.70;16.67;;;6.90;53.90;;;;;;5135780;27;20995;-90
2021/11/29 03:41:30;;;;;;;21.70;15.07;;;6.90;54.10;;;;;;5136073;27;20533;-90
2021/11/29 03:43:57;;;;;;;22.87;16.30;;;7.10;54.80;;;;;;5135685;27;20867;-91
2021/11/29 03:46:23;;;;;;;27.27;16.67;;;7.20;53.50;;;;;;5136653;27;20782;-90
2021/11/29 03:48:52;;;;;;;23.30;16.50;;;7.30;53.00;;;;;;5137866;27;20483;-90
2021/11/29 03:51:19;;;;;;;26.53;16.80;;;7.10;53.00;;;;;;5138211;27;20456;-91
2021/11/29 03:53:45;;;;;;;24.50;16.93;;;7.20;53.10;;;;;;5139800;27;20460;-90
2021/11/29 03:56:13;;;;;;;30.10;18.60;;;7.10;53.00;;;;;;5138000;27;20512;-90
2021/11/29 03:58:39;;;;;;;40.57;22.23;;;7.40;53.50;;;;;;5137583;27;20512;-90
2021/11/29 04:01:06;;;;;;;30.63;20.40;;;7.40;52.70;;;;;;5137495;27;20479;-91
2021/11/29 04:03:34;;;;;;;29.60;19.17;;;7.40;52.30;;;;;;5138006;27;20449;-90
2021/11/29 04:06:03;;;;;;;28.13;18.20;;;7.30;52.30;;;;;;5137561;27;20503;-91
2021/11/29 04:08:29;;;;;;;31.80;18.80;;;7.30;52.30;;;;;;5139593;27;20495;-90
2021/11/29 04:10:56;;;;;;;33.70;20.20;;;7.10;52.50;;;;;;5140748;27;20488;-90
2021/11/29 04:13:23;;;;;;;30.50;18.73;;;7.20;52.50;;;;;;5151232;27;20456;-84
2021/11/29 04:15:50;;;;;;;38.83;19.90;;;7.40;50.70;;;;;;5158629;27;20443;-91
2021/11/29 04:18:17;;;;;;;34.43;19.77;;;7.40;50.60;;;;;;5149004;27;20504;-85
2021/11/29 04:20:44;;;;;;;32.60;19.87;;;7.30;50.50;;;;;;5159107;27;20484;-85
2021/11/29 04:23:12;;;;;;;27.03;18.70;;;7.10;51.50;;;;;;5154937;27;20550;-90
2021/11/29 04:25:45;;;;;;;32.60;20.27;;;7.10;53.40;;;;;;5136024;27;20536;-90
2021/11/29 04:28:12;;;;;;;32.33;19.87;;;7.10;51.20;;;;;;5135217;27;20431;-90
2021/11/29 04:30:39;;;;;;;29.57;18.27;;;7.20;51.80;;;;;;5135745;27;20462;-90
2021/11/29 04:33:06;;;;;;;37.13;19.23;;;7.00;52.10;;;;;;5135598;27;20451;-90
2021/11/29 04:35:33;;;;;;;32.23;19.20;;;6.90;51.40;;;;;;5137991;27;20460;-91
2021/11/29 04:38:00;;;;;;;29.23;18.80;;;6.90;51.60;;;;;;5137264;27;20432;-90
2021/11/29 04:40:28;;;;;;;27.47;16.90;;;7.10;51.20;;;;;;5138528;27;20443;-91
2021/11/29 04:42:55;;;;;;;28.90;18.13;;;7.20;56.30;;;;;;5138200;27;20563;-92
2021/11/29 04:45:22;;;;;;;33.33;18.70;;;7.20;52.30;;;;;;5140506;27;20501;-90
2021/11/29 04:47:49;;;;;;;29.20;19.00;;;7.30;50.70;;;;;;5138837;27;20479;-91
2021/11/29 04:50:16;;;;;;;33.30;19.77;;;6.80;51.10;;;;;;5139691;27;20538;-91
2021/11/29 04:52:44;;;;;;;32.90;20.03;;;6.70;52.50;;;;;;5144819;27;20547;-91
2021/11/29 04:55:11;;;;;;;33.20;20.63;;;6.60;51.80;;;;;;5137656;27;20440;-92
2021/11/29 04:57:41;;;;;;;29.03;18.90;;;6.60;53.90;;;;;;5139011;27;20854;-92
2021/11/29 05:00:12;;;;;;;30.67;19.00;;;7.20;56.50;;;;;;5147740;28;20540;-89
2021/11/29 05:02:39;;;;;;;27.97;18.33;;;7.30;53.20;;;;;;5151020;28;20493;-88
2021/11/29 05:05:07;;;;;;;33.90;18.83;;;7.50;51.30;;;;;;5151580;28;20464;-89
2021/11/29 05:07:34;;;;;;;30.50;19.57;;;8.10;56.60;;;;;;5140401;28;20523;-90
2021/11/29 05:10:01;;;;;;;31.17;19.67;;;7.90;50.50;;;;;;5136635;28;20467;-91
2021/11/29 05:12:29;;;;;;;31.07;18.37;;;7.70;50.50;;;;;;5137392;28;20444;-90
2021/11/29 05:14:57;;;;;;;30.37;18.93;;;7.50;50.50;;;;;;5136747;28;20436;-90
2021/11/29 05:17:24;;;;;;;33.63;18.63;;;7.90;55.60;;;;;;5137640;28;20540;-91
2021/11/29 05:19:51;;;;;;;29.77;18.03;;;8.50;52.10;;;;;;5137913;28;20479;-90
2021/11/29 05:22:18;;;;;;;28.23;18.50;;;8.30;52.90;;;;;;5141482;28;20560;-92
2021/11/29 05:24:45;;;;;;;32.10;18.77;;;8.00;50.50;;;;;;5140353;28;20535;-91
2021/11/29 05:27:12;;;;;;;30.83;19.50;;;8.00;52.90;;;;;;5157787;27;20429;-87
2021/11/29 05:29:38;;;;;;;35.53;19.10;;;8.20;50.80;;;;;;5158156;27;20533;-86
2021/11/29 05:32:08;;;;;;;30.37;20.57;;;8.20;50.30;;;;;;5158298;27;20449;-87
2021/11/29 05:34:35;;;;;;;27.37;18.43;;;8.40;51.80;;;;;;5148360;27;20428;-90
2021/11/29 05:37:02;;;;;;;23.40;15.23;;;8.80;49.70;;;;;;5137037;28;20458;-91
2021/11/29 05:39:29;;;;;;;28.63;18.30;;;8.90;53.40;;;;;;5150751;27;20477;-85
2021/11/29 05:41:56;;;;;;;22.17;13.93;;;8.90;48.60;;;;;;5157776;27;20488;-86
2021/11/29 05:44:23;;;;;;;30.10;18.20;;;9.40;57.70;;;;;;5157720;27;20457;-86
2021/11/29 05:46:50;;;;;;;26.93;17.10;;;9.70;55.30;;;;;;5157763;27;20448;-85
2021/11/29 05:49:18;;;;;;;20.70;14.20;;;10.30;50.50;;;;;;5158018;27;20484;-84
2021/11/29 05:51:45;;;;;;;21.80;15.40;;;10.70;49.90;;;;;;5141182;27;20491;-91
2021/11/29 05:54:12;;;;;;;22.47;15.70;;;11.10;46.10;;;;;;5134731;28;20583;-90
2021/11/29 05:56:38;;;;;;;23.80;15.03;;;10.70;45.20;;;;;;5134060;28;20454;-90
2021/11/29 05:59:05;;;;;;;21.20;14.50;;;9.90;51.80;;;;;;5134858;28;20559;-91
2021/11/29 06:01:32;;;;;;;23.23;15.77;;;9.60;50.20;;;;;;5135292;28;20973;-91
2021/11/29 06:03:59;;;;;;;27.83;15.80;;;9.40;45.80;;;;;;5135399;28;20448;-91
2021/11/29 06:06:27;;;;;;;27.47;17.53;;;8.50;46.70;;;;;;5137836;27;20444;-91
2021/11/29 06:08:54;;;;;;;26.17;16.67;;;7.80;48.60;;;;;;5139568;27;20469;-92
2021/11/29 06:11:21;;;;;;;29.77;16.90;;;6.90;50.90;;;;;;5140180;27;20436;-92
2021/11/29 06:13:48;;;;;;;27.57;17.67;;;6.80;52.80;;;;;;5138554;27;20539;-92
2021/11/29 06:16:15;;;;;;;30.10;17.97;;;6.40;54.00;;;;;;5138410;27;20518;-92
2021/11/29 06:18:42;;;;;;;37.70;19.00;;;6.20;53.70;;;;;;5138889;27;20541;-92
2021/11/29 06:21:15;;;;;;;29.47;18.67;;;6.00;54.70;;;;;;5139161;27;20519;-92
2021/11/29 06:23:43;;;;;;;29.63;19.07;;;5.80;55.40;;;;;;5138596;27;20484;-91
2021/11/29 06:26:10;;;;;;;32.10;19.30;;;6.60;54.80;;;;;;5143983;27;20512;-91
2021/11/29 06:28:37;;;;;;;45.90;18.17;;;6.90;52.80;;;;;;5150049;27;20449;-90
2021/11/29 06:31:04;;;;;;;32.53;19.13;;;7.10;55.10;;;;;;5138773;27;20441;-90
2021/11/29 06:33:31;;;;;;;24.97;15.53;;;7.20;54.00;;;;;;5144409;27;20454;-90
2021/11/29 06:36:00;;;;;;;29.60;16.30;;;7.50;55.50;;;;;;5149763;27;20528;-89
2021/11/29 06:38:28;;;;;;;29.87;17.37;;;7.80;54.90;;;;;;5148193;27;20460;-89
2021/11/29 06:40:59;;;;;;;26.80;17.07;;;7.80;52.70;;;;;;5146091;27;20449;-91
2021/11/29 06:43:26;;;;;;;27.53;17.70;;;7.70;52.60;;;;;;5139150;27;20487;-91
2021/11/29 06:45:55;;;;;;;32.10;16.00;;;8.10;52.40;;;;;;5141008;27;20794;-92
2021/11/29 06:48:22;;;;;;;25.67;16.30;;;7.90;52.00;;;;;;5142855;27;20533;-90
2021/11/29 06:50:51;;;;;;;32.63;14.70;;;8.30;50.90;;;;;;5142276;27;20466;-90
2021/11/29 06:53:19;;;;;;;27.40;17.30;;;8.50;54.40;;;;;;5142680;27;20543;-91
2021/11/29 06:55:47;;;;;;;30.67;16.77;;;8.20;51.70;;;;;;5142227;27;20449;-90
2021/11/29 07:00:59;;;;;;;29.50;17.90;;;8.40;50.30;;;;;;5158308;27;20514;-85
2021/11/29 07:03:27;;;;;;;33.00;17.00;;;8.10;49.50;;;;;;5149248;27;20480;-88
2021/11/29 07:05:54;;;;;;;28.30;16.00;;;8.30;51.00;;;;;;5160291;27;20445;-86
2021/11/29 07:08:21;;;;;;;29.00;15.13;;;8.50;49.20;;;;;;5159290;27;20453;-89
2021/11/29 07:10:48;;;;;;;22.30;15.50;;;8.60;51.80;;;;;;5140393;27;20436;-91
2021/11/29 07:13:17;;;;;;;23.37;13.70;;;8.90;51.80;;;;;;5139162;27;20496;-91
2021/11/29 07:15:45;;;;;;;20.50;11.80;;;9.10;54.40;;;;;;5137428;27;20830;-90
2021/11/29 07:18:14;;;;;;;18.00;12.60;;;8.90;50.20;;;;;;5137298;27;20929;-90
2021/11/29 07:20:41;;;;;;;21.67;12.70;;;8.70;50.70;;;;;;5138231;27;20429;-90
2021/11/29 07:23:08;;;;;;;26.73;13.90;;;8.50;49.80;;;;;;5137277;27;20488;-91
2021/11/29 07:25:35;;;;;;;22.33;12.70;;;8.60;49.30;;;;;;5137378;27;20483;-90
2021/11/29 07:28:02;;;;;;;23.17;13.83;;;8.40;50.40;;;;;;5136210;27;20446;-90
2021/11/29 07:30:31;;;;;;;19.40;12.77;;;8.50;49.30;;;;;;5135841;27;20638;-89
2021/11/29 07:32:59;;;;;;;24.10;13.37;;;8.80;52.10;;;;;;5136468;27;20472;-90
2021/11/29 07:35:28;;;;;;;21.03;11.10;;;8.80;47.50;;;;;;5136197;27;20440;-90
2021/11/29 07:37:55;;;;;;;17.70;12.00;;;8.70;48.50;;;;;;5136581;27;20449;-89
2021/11/29 07:40:28;;;;;;;26.23;13.03;;;8.40;50.60;;;;;;5136512;27;21118;-89
2021/11/29 07:42:54;;;;;;;20.30;12.00;;;8.20;49.00;;;;;;5136448;27;20592;-88
2021/11/29 07:45:21;;;;;;;22.03;13.10;;;8.20;49.00;;;;;;5136240;27;20447;-90
2021/11/29 07:47:50;;;;;;;19.30;11.10;;;8.50;49.20;;;;;;5136057;27;20547;-89
2021/11/29 07:50:18;;;;;;;21.47;12.70;;;8.60;47.80;;;;;;5136354;27;20468;-86
2021/11/29 07:52:47;;;;;;;19.00;12.37;;;8.60;47.50;;;;;;5136680;27;20819;-87
2021/11/29 07:55:16;;;;;;;15.27;10.50;;;8.50;46.90;;;;;;5136536;27;20921;-92
2021/11/29 07:57:44;;;;;;;21.23;11.93;;;8.80;52.40;;;;;;5135789;27;20539;-91
2021/11/29 08:00:17;;;;;;;21.97;11.17;;;8.80;49.60;;;;;;5136946;27;20465;-89
2021/11/29 08:02:44;;;;;;;20.00;11.53;;;8.90;47.90;;;;;;5136954;27;20880;-86
2021/11/29 08:05:13;;;;;;;22.30;12.37;;;9.00;46.30;;;;;;5135889;27;20560;-86
2021/11/29 08:07:39;;;;;;;18.40;11.70;;;8.50;47.30;;;;;;5136161;27;20489;-87
2021/11/29 08:10:08;;;;;;;19.13;11.23;;;8.30;47.70;;;;;;5136262;27;20500;-87
2021/11/29 08:12:35;;;;;;;20.43;11.90;;;8.50;47.40;;;;;;5136267;27;20468;-88
2021/11/29 08:15:02;;;;;;;20.07;12.10;;;8.60;47.00;;;;;;5137897;27;20959;-87
2021/11/29 08:17:29;;;;;;;18.00;11.10;;;8.50;46.70;;;;;;5136424;27;20455;-87
2021/11/29 08:19:56;;;;;;;16.50;9.73;;;8.30;50.30;;;;;;5135476;27;20484;-87
2021/11/29 08:22:24;;;;;;;15.00;9.30;;;8.10;48.90;;;;;;5135071;27;20485;-87
2021/11/29 08:24:51;;;;;;;13.80;9.20;;;8.20;48.00;;;;;;5135304;27;20521;-87
2021/11/29 08:27:18;;;;;;;20.90;9.30;;;8.40;49.20;;;;;;5135694;27;20429;-88
2021/11/29 08:29:45;;;;;;;15.23;9.70;;;8.30;46.30;;;;;;5135054;27;20479;-87
2021/11/29 08:32:12;;;;;;;24.87;9.97;;;8.50;48.20;;;;;;5135599;27;20441;-87
2021/11/29 08:34:39;;;;;;;19.73;8.50;;;8.60;46.70;;;;;;5135217;27;20528;-87
2021/11/29 08:37:06;;;;;;;13.27;8.50;;;8.40;47.70;;;;;;5134784;27;20501;-87
2021/11/29 08:39:35;;;;;;;11.40;8.17;;;8.60;49.40;;;;;;5135235;27;20469;-87
2021/11/29 08:42:02;;;;;;;16.57;9.10;;;8.70;49.40;;;;;;5135349;27;20484;-87
2021/11/29 08:44:29;;;;;;;19.40;9.37;;;8.60;47.50;;;;;;5136308;27;20449;-87
2021/11/29 08:46:57;;;;;;;14.60;9.20;;;8.90;47.80;;;;;;5135177;27;20448;-88
2021/11/29 08:49:25;;;;;;;12.90;8.10;;;9.00;46.90;;;;;;5134681;27;20532;-87
2021/11/29 08:51:53;;;;;;;15.60;8.30;;;8.80;49.30;;;;;;5134247;27;20866;-89
2021/11/29 08:54:20;;;;;;;19.53;10.13;;;8.60;49.90;;;;;;5135267;27;20516;-87
2021/11/29 08:56:49;;;;;;;12.40;8.97;;;8.60;45.20;;;;;;5136201;27;20455;-91
2021/11/29 08:59:17;;;;;;;17.23;9.27;;;9.00;49.40;;;;;;5138240;27;20488;-87
2021/11/29 09:01:45;;;;;;;25.13;9.30;;;8.70;45.70;;;;;;5139369;28;20816;-91
2021/11/29 09:04:13;;;;;;;15.67;9.60;;;8.70;49.40;;;;;;5136777;28;20439;-88
2021/11/29 09:06:40;;;;;;;18.50;10.37;;;9.00;45.30;;;;;;5135404;28;20926;-87
2021/11/29 09:09:07;;;;;;;24.03;9.20;;;8.60;44.30;;;;;;5136010;28;20484;-87
2021/11/29 09:11:34;;;;;;;16.53;9.10;;;8.60;45.90;;;;;;5136875;28;20782;-87
2021/11/29 09:14:02;;;;;;;13.83;8.70;;;9.00;47.20;;;;;;5136271;28;20512;-87
2021/11/29 09:16:29;;;;;;;13.00;9.67;;;9.30;52.20;;;;;;5134877;28;20452;-87
2021/11/29 09:18:56;;;;;;;22.23;9.50;;;9.40;43.90;;;;;;5135531;28;20541;-87
2021/11/29 09:21:25;;;;;;;14.07;8.63;;;9.40;48.40;;;;;;5134001;28;20593;-87
2021/11/29 09:23:52;;;;;;;18.97;8.17;;;10.00;49.30;;;;;;5134619;28;20483;-87
2021/11/29 09:26:19;;;;;;;11.97;8.00;;;9.90;43.10;;;;;;5134995;28;20448;-88
2021/11/29 09:28:47;;;;;;;14.43;8.17;;;9.70;44.80;;;;;;5134584;28;20974;-88
2021/11/29 09:31:15;;;;;;;15.83;9.60;;;9.30;43.70;;;;;;5135055;28;20472;-87
2021/11/29 09:34:05;;;;;;;19.23;10.23;;;8.40;45.20;;;;;;5136774;28;20866;-88
2021/11/29 09:36:53;;;;;;;14.30;9.30;;;8.10;46.70;;;;;;5126029;28;20532;-88
2021/11/29 09:39:53;;;;;;;23.30;10.43;;;7.40;51.70;;;;;;5138337;27;20472;-88
2021/11/29 09:42:21;;;;;;;24.50;9.63;;;7.40;48.80;;;;;;5143340;27;20468;-88
2021/11/29 09:44:56;;;;;;;19.50;8.50;;;7.60;49.20;;;;;;5143308;27;20452;-87
2021/11/29 09:47:42;;;;;;;17.20;10.33;;;7.70;53.80;;;;;;5157819;27;20425;-87
2021/11/29 09:50:10;;;;;;;18.27;10.20;;;8.20;46.40;;;;;;5154411;27;20484;-87
2021/11/29 09:52:44;;;;;;;29.37;10.00;;;7.50;48.40;;;;;;5156862;27;20475;-87
2021/11/29 09:55:14;;;;;;;16.70;10.37;;;8.80;51.80;;;;;;5162163;27;20413;-86
2021/11/29 09:57:42;;;;;;;22.60;11.07;;;8.90;44.10;;;;;;5141676;27;20433;-87
2021/11/29 10:00:12;;;;;;;13.90;9.80;;;8.50;44.80;;;;;;5137822;27;20555;-88
2021/11/29 10:02:41;;;;;;;17.53;9.57;;;8.10;45.60;;;;;;5138536;27;20456;-87
2021/11/29 10:05:28;;;;;;;16.27;8.40;;;7.50;46.80;;;;;;5138070;27;20484;-87
2021/11/29 10:11:11;;;;;;;20.23;9.87;;;8.00;46.80;;;;;;5135911;27;20448;-87
2021/11/29 10:13:50;;;;;;;15.60;10.27;;;7.50;48.40;;;;;;5139976;27;20433;-87
2021/11/29 10:16:32;;;;;;;23.70;11.30;;;7.80;47.60;;;;;;5138196;27;20432;-88
2021/11/29 10:23:31;;;;;;;22.80;11.20;;;8.30;46.50;;;;;;5074158;28;20893;-86
2021/11/29 10:26:00;;;;;;;23.43;11.07;;;8.60;46.60;;;;;;5137512;27;20438;-87
2021/11/29 10:28:29;;;;;;;16.33;8.00;;;8.80;45.90;;;;;;5137639;27;20539;-86
2021/11/29 10:31:13;;;;;;;14.20;6.90;;;8.50;45.10;;;;;;5137674;27;20462;-87
2021/11/29 10:33:58;;;;;;;11.53;6.23;;;8.50;45.60;;;;;;5137782;27;20864;-86
2021/11/29 10:36:30;;;;;;;16.87;8.00;;;8.80;44.40;;;;;;5139131;27;20420;-86
2021/11/29 10:38:59;;;;;;;14.30;8.27;;;8.60;44.30;;;;;;5138313;27;20492;-86
2021/11/29 10:41:30;;;;;;;15.57;7.90;;;8.40;44.30;;;;;;5138303;27;20463;-86
2021/11/29 10:43:58;;;;;;;14.90;8.90;;;8.50;46.40;;;;;;5138059;27;20478;-86
2021/11/29 10:46:30;;;;;;;14.57;7.00;;;8.20;44.30;;;;;;5136641;27;20533;-87
2021/11/29 10:49:00;;;;;;;11.10;6.00;;;8.50;44.90;;;;;;5136788;27;20543;-87
2021/11/29 10:51:28;;;;;;;10.27;5.70;;;8.30;45.30;;;;;;5136932;27;20441;-87
2021/11/29 10:53:59;;;;;;;20.40;7.13;;;8.30;47.40;;;;;;5136962;27;20440;-86
2021/11/29 10:56:28;;;;;;;17.53;6.60;;;8.40;44.90;;;;;;5136908;27;20445;-86
2021/11/29 11:18:48;;;;;;;12.00;7.27;;;9.00;44.50;;;;;;4972191;28;20451;-85
2021/11/29 11:35:13;;;;;;;14.57;4.60;;;8.90;43.30;;;;;;4977828;28;20438;-85
2021/11/29 11:37:44;;;;;;;13.20;4.40;;;8.70;41.70;;;;;;4995321;28;20427;-85
2021/11/29 11:40:20;;;;;;;8.00;4.30;;;8.50;43.60;;;;;;4994911;28;20481;-85
2021/11/29 11:43:29;;;;;;;10.30;5.10;;;7.90;44.30;;;;;;4996236;28;20824;-85
2021/11/29 11:46:39;;;;;;;9.20;3.97;;;8.00;42.70;;;;;;4994255;28;20534;-85
2021/11/29 11:53:37;;;;;;;12.50;4.50;;;7.90;44.20;;;;;;4931208;29;20496;-85
2021/11/29 12:00:26;;;;;;;9.23;4.43;;;8.40;43.50;;;;;;4881409;29;20877;-85
2021/11/29 12:07:08;;;;;;;11.90;4.43;;;8.00;42.90;;;;;;4852513;29;20548;-84
2021/11/29 12:13:20;;;;;;;13.73;4.67;;;8.40;48.90;;;;;;4957440;29;20461;-84
2021/11/29 12:16:03;;;;;;;4.80;3.40;;;8.10;44.30;;;;;;4935864;29;20486;-85
2021/11/29 12:19:19;;;;;;;8.53;3.60;;;7.80;43.70;;;;;;4953638;29;20476;-85
2021/11/29 12:29:06;;;;;;;12.57;4.50;;;8.30;49.30;;;;;;4929721;28;20523;-85
2021/11/29 12:38:44;;;;;;;10.50;5.23;;;9.90;49.20;;;;;;5027383;22;20414;-87
2021/11/29 12:41:37;;;;;;;7.20;3.77;;;10.40;44.60;;;;;;5158658;27;20421;-86
2021/11/29 12:44:05;;;;;;;12.30;5.10;;;10.30;41.60;;;;;;5158747;27;20461;-86
2021/11/29 12:47:27;;;;;;;9.30;4.53;;;9.80;40.60;;;;;;5415845;22;20533;-85
2021/11/29 12:57:13;;;;;;;10.77;4.03;;;9.00;45.10;;;;;;5116331;28;20483;-86
2021/11/29 13:00:25;;;;;;;7.00;4.27;;;8.40;40.20;;;;;;5114481;28;20522;-86
2021/11/29 13:07:34;;;;;;;;;;;;;;;;;;;;;
2021/11/29 13:15:39;;;;;;;10.63;5.30;;;8.90;41.50;;;;;;5114165;28;20550;-89
2021/11/29 13:19:00;;;;;;;16.83;5.73;;;8.90;46.50;;;;;;5093020;28;20816;-88
2021/11/29 13:21:59;;;;;;;9.07;5.07;;;8.80;45.30;;;;;;5119653;28;20445;-89
2021/11/29 13:30:54;;;;;;;11.27;6.10;;;8.40;45.70;;;;;;5123037;28;20429;-90
2021/11/29 13:50:59;;;;;;;13.10;6.70;;;7.00;47.10;;;;;;4962976;28;20530;-88
2021/11/29 13:57:51;;;;;;;15.97;7.80;;;7.30;46.50;;;;;;4918273;29;20537;-91
2021/11/29 14:00:32;;;;;;;11.43;7.30;;;7.80;44.40;;;;;;4965165;28;20508;-90
2021/11/29 14:03:45;;;;;;;15.73;6.33;;;8.10;43.10;;;;;;4982893;28;20457;-88
2021/11/29 14:06:16;;;;;;;12.30;6.47;;;8.30;52.10;;;;;;5066593;28;20465;-90
2021/11/29 14:11:29;;;;;;;9.43;6.80;;;8.90;45.00;;;;;;5082645;28;20423;-91
2021/11/29 14:14:01;;;;;;;20.47;7.77;;;9.10;44.80;;;;;;5080458;28;20447;-90
2021/11/29 14:16:32;;;;;;;12.27;7.37;;;9.30;42.30;;;;;;5097755;28;20448;-91
2021/11/29 14:19:01;;;;;;;14.93;7.47;;;8.90;43.50;;;;;;5123606;28;20462;-88
2021/11/29 14:21:32;;;;;;;15.63;8.80;;;8.50;45.30;;;;;;5124723;28;20429;-89
2021/11/29 14:24:00;;;;;;;13.07;7.80;;;8.00;46.70;;;;;;5122059;28;20479;-89
2021/11/29 14:26:33;;;;;;;14.93;8.17;;;7.30;48.30;;;;;;5118479;28;20410;-90
2021/11/29 14:29:05;;;;;;;13.37;7.90;;;7.90;46.00;;;;;;5117418;28;20585;-89
2021/11/29 14:31:32;;;;;;;19.73;7.80;;;8.30;51.00;;;;;;5118987;28;20445;-90
2021/11/29 14:34:00;;;;;;;13.40;8.07;;;8.30;48.10;;;;;;5117211;28;20927;-90
2021/11/29 14:36:35;;;;;;;12.63;8.40;;;8.80;51.80;;;;;;5119428;28;20445;-91
2021/11/29 14:39:03;;;;;;;16.87;8.60;;;8.60;50.50;;;;;;5119162;28;20449;-91
2021/11/29 14:41:45;;;;;;;18.50;9.57;;;8.60;45.10;;;;;;5119277;28;20448;-90
2021/11/29 14:44:13;;;;;;;19.57;10.47;;;7.80;45.70;;;;;;5119573;28;20470;-90
2021/11/29 14:46:40;;;;;;;17.97;10.90;;;7.60;50.40;;;;;;5120300;28;20955;-90
2021/11/29 14:49:21;;;;;;;16.17;8.07;;;8.30;47.90;;;;;;5120594;28;20493;-90
2021/11/29 14:51:51;;;;;;;21.93;8.47;;;8.20;46.10;;;;;;5119500;28;20768;-90
2021/11/29 14:54:24;;;;;;;11.10;7.80;;;7.10;46.90;;;;;;5120216;28;20445;-88
2021/11/29 14:56:51;;;;;;;13.87;7.47;;;6.60;50.30;;;;;;5118924;28;20438;-91
2021/11/29 14:59:25;;;;;;;14.83;8.80;;;6.10;48.80;;;;;;5118897;28;20552;-89
2021/11/29 15:01:55;;;;;;;16.10;8.13;;;5.50;51.70;;;;;;5119352;28;20509;-89